sensor_id;sensor_type;location;lat;lon;timestamp;pressure;altitude;pressure_sealevel;temperature;humidity
62126;BME280;48112;53.282;6.150;2023-03-02T00:00:12;102989.53;;;15.34;52.25
62126;BME280;48112;53.282;6.150;2023-03-02T00:01:16;102986.31;;;15.32;52.35
62126;BME280;48112;53.282;6.150;2023-03-02T00:02:19;102981.69;;;15.33;52.42
62126;BME280;48112;53.282;6.150;2023-03-02T00:03:22;102991.75;;;15.32;52.35
62126;BME280;48112;53.282;6.150;2023-03-02T00:04:27;102991.75;;;15.32;52.26
62126;BME280;48112;53.282;6.150;2023-03-02T00:05:29;102991.75;;;15.32;52.25
62126;BME280;48112;53.282;6.150;2023-03-02T00:06:32;102991.75;;;15.32;52.47
62126;BME280;48112;53.282;6.150;2023-03-02T00:07:35;102988.25;;;15.32;52.34
62126;BME280;48112;53.282;6.150;2023-03-02T00:08:39;102993.69;;;15.32;52.19
62126;BME280;48112;53.282;6.150;2023-03-02T00:09:41;102983.91;;;15.31;52.20
62126;BME280;48112;53.282;6.150;2023-03-02T00:10:45;102993.69;;;15.32;52.17
62126;BME280;48112;53.282;6.150;2023-03-02T00:11:47;102986.31;;;15.32;52.28
62126;BME280;48112;53.282;6.150;2023-03-02T00:12:51;102989.34;;;15.31;52.25
62126;BME280;48112;53.282;6.150;2023-03-02T00:13:53;102990.16;;;15.31;52.32
62126;BME280;48112;53.282;6.150;2023-03-02T00:14:56;102986.31;;;15.32;52.31
62126;BME280;48112;53.282;6.150;2023-03-02T00:15:57;102990.16;;;15.31;52.25
62126;BME280;48112;53.282;6.150;2023-03-02T00:17:00;102987.44;;;15.31;52.29
62126;BME280;48112;53.282;6.150;2023-03-02T00:18:03;102983.09;;;15.30;52.22
62126;BME280;48112;53.282;6.150;2023-03-02T00:19:06;102978.47;;;15.31;52.11
62126;BME280;48112;53.282;6.150;2023-03-02T00:20:09;102976.56;;;15.31;52.25
62126;BME280;48112;53.282;6.150;2023-03-02T00:21:12;102979.28;;;15.31;52.11
62126;BME280;48112;53.282;6.150;2023-03-02T00:22:14;102983.91;;;15.31;52.20
62126;BME280;48112;53.282;6.150;2023-03-02T00:23:17;102984.72;;;15.31;52.14
62126;BME280;48112;53.282;6.150;2023-03-02T00:24:19;102976.88;;;15.30;52.17
62126;BME280;48112;53.282;6.150;2023-03-02T00:25:22;102980.38;;;15.30;52.29
62126;BME280;48112;53.282;6.150;2023-03-02T00:26:24;102969.50;;;15.30;52.14
62126;BME280;48112;53.282;6.150;2023-03-02T00:27:26;102974.94;;;15.30;52.23
62126;BME280;48112;53.282;6.150;2023-03-02T00:28:31;102965.19;;;15.29;52.10
62126;BME280;48112;53.282;6.150;2023-03-02T00:29:35;102970.63;;;15.29;52.13
62126;BME280;48112;53.282;6.150;2023-03-02T00:30:37;102976.06;;;15.29;52.33
62126;BME280;48112;53.282;6.150;2023-03-02T00:31:39;102971.44;;;15.30;52.34
62126;BME280;48112;53.282;6.150;2023-03-02T00:32:41;102972.22;;;15.30;51.91
62126;BME280;48112;53.282;6.150;2023-03-02T00:33:44;102971.44;;;15.30;52.26
62126;BME280;48112;53.282;6.150;2023-03-02T00:34:46;102976.06;;;15.29;52.06
62126;BME280;48112;53.282;6.150;2023-03-02T00:35:49;102976.88;;;15.30;52.15
62126;BME280;48112;53.282;6.150;2023-03-02T00:36:51;102976.06;;;15.29;52.19
62126;BME280;48112;53.282;6.150;2023-03-02T00:37:53;102982.31;;;15.30;52.12
62126;BME280;48112;53.282;6.150;2023-03-02T00:38:55;102974.47;;;15.28;52.31
62126;BME280;48112;53.282;6.150;2023-03-02T00:39:58;102981.53;;;15.29;52.14
62126;BME280;48112;53.282;6.150;2023-03-02T00:41:00;102980.72;;;15.29;52.11
62126;BME280;48112;53.282;6.150;2023-03-02T00:42:02;102980.72;;;15.29;52.10
62126;BME280;48112;53.282;6.150;2023-03-02T00:43:04;102970.63;;;15.29;52.10
62126;BME280;48112;53.282;6.150;2023-03-02T00:44:09;102970.63;;;15.29;52.32
62126;BME280;48112;53.282;6.150;2023-03-02T00:45:17;102971.75;;;15.28;52.16
62126;BME280;48112;53.282;6.150;2023-03-02T00:46:21;102976.41;;;15.28;52.32
62126;BME280;48112;53.282;6.150;2023-03-02T00:47:23;102965.50;;;15.28;52.20
62126;BME280;48112;53.282;6.150;2023-03-02T00:48:26;102968.22;;;15.28;52.12
62126;BME280;48112;53.282;6.150;2023-03-02T00:49:28;102974.47;;;15.28;52.27
62126;BME280;48112;53.282;6.150;2023-03-02T00:50:30;102972.88;;;15.27;52.35
62126;BME280;48112;53.282;6.150;2023-03-02T00:51:32;102972.53;;;15.29;52.18
62126;BME280;48112;53.282;6.150;2023-03-02T00:52:36;102967.41;;;15.27;52.17
62126;BME280;48112;53.282;6.150;2023-03-02T00:53:37;102979.94;;;15.28;52.18
62126;BME280;48112;53.282;6.150;2023-03-02T00:54:41;102975.59;;;15.27;52.01
62126;BME280;48112;53.282;6.150;2023-03-02T00:55:50;102972.09;;;15.27;52.11
62126;BME280;48112;53.282;6.150;2023-03-02T00:56:54;102974.81;;;15.27;52.25
62126;BME280;48112;53.282;6.150;2023-03-02T00:57:55;102972.09;;;15.27;52.09
62126;BME280;48112;53.282;6.150;2023-03-02T00:59:04;102970.16;;;15.27;52.04
62126;BME280;48112;53.282;6.150;2023-03-02T01:00:12;102967.41;;;15.27;52.25
62126;BME280;48112;53.282;6.150;2023-03-02T01:01:18;102966.66;;;15.27;52.18
62126;BME280;48112;53.282;6.150;2023-03-02T01:02:23;102968.56;;;15.26;52.17
62126;BME280;48112;53.282;6.150;2023-03-02T01:03:27;102969.69;;;15.25;52.07
62126;BME280;48112;53.282;6.150;2023-03-02T01:04:29;102965.84;;;15.26;52.18
62126;BME280;48112;53.282;6.150;2023-03-02T01:05:34;102965.84;;;15.26;52.03
62126;BME280;48112;53.282;6.150;2023-03-02T01:06:37;102963.13;;;15.26;52.12
62126;BME280;48112;53.282;6.150;2023-03-02T01:07:47;102959.59;;;15.26;52.07
62126;BME280;48112;53.282;6.150;2023-03-02T01:08:49;102960.38;;;15.26;52.13
62126;BME280;48112;53.282;6.150;2023-03-02T01:09:52;102958.47;;;15.27;52.17
62126;BME280;48112;53.282;6.150;2023-03-02T01:10:54;102949.50;;;15.26;52.22
62126;BME280;48112;53.282;6.150;2023-03-02T01:11:57;102958.81;;;15.25;52.13
62126;BME280;48112;53.282;6.150;2023-03-02T01:12:59;102954.94;;;15.26;52.14
62126;BME280;48112;53.282;6.150;2023-03-02T01:14:02;102944.06;;;15.26;52.06
62126;BME280;48112;53.282;6.150;2023-03-02T01:15:04;102945.97;;;15.26;51.94
62126;BME280;48112;53.282;6.150;2023-03-02T01:16:09;102942.47;;;15.25;52.04
62126;BME280;48112;53.282;6.150;2023-03-02T01:17:12;102942.47;;;15.25;52.13
62126;BME280;48112;53.282;6.150;2023-03-02T01:18:15;102940.84;;;15.24;52.09
62126;BME280;48112;53.282;6.150;2023-03-02T01:19:17;102938.94;;;15.25;52.07
62126;BME280;48112;53.282;6.150;2023-03-02T01:20:20;102937.03;;;15.25;52.00
62126;BME280;48112;53.282;6.150;2023-03-02T01:21:22;102934.31;;;15.25;52.05
62126;BME280;48112;53.282;6.150;2023-03-02T01:22:24;102931.59;;;15.25;51.98
62126;BME280;48112;53.282;6.150;2023-03-02T01:23:26;102937.03;;;15.25;52.03
62126;BME280;48112;53.282;6.150;2023-03-02T01:24:29;102933.50;;;15.25;52.01
62126;BME280;48112;53.282;6.150;2023-03-02T01:25:32;102928.88;;;15.25;51.99
62126;BME280;48112;53.282;6.150;2023-03-02T01:26:34;102921.81;;;15.24;52.00
62126;BME280;48112;53.282;6.150;2023-03-02T01:27:38;102928.88;;;15.25;52.10
62126;BME280;48112;53.282;6.150;2023-03-02T01:28:40;102928.06;;;15.25;52.08
62126;BME280;48112;53.282;6.150;2023-03-02T01:29:43;102927.25;;;15.24;52.10
62126;BME280;48112;53.282;6.150;2023-03-02T01:30:45;102923.41;;;15.25;52.05
62126;BME280;48112;53.282;6.150;2023-03-02T01:31:51;102916.34;;;15.24;52.05
62126;BME280;48112;53.282;6.150;2023-03-02T01:32:53;102919.88;;;15.25;52.08
62126;BME280;48112;53.282;6.150;2023-03-02T01:33:55;102919.09;;;15.24;52.10
62126;BME280;48112;53.282;6.150;2023-03-02T01:34:57;102913.63;;;15.24;51.95
62126;BME280;48112;53.282;6.150;2023-03-02T01:36:00;102913.63;;;15.24;51.93
62126;BME280;48112;53.282;6.150;2023-03-02T01:37:02;102920.22;;;15.23;52.12
62126;BME280;48112;53.282;6.150;2023-03-02T01:38:05;102925.66;;;15.23;52.06
62126;BME280;48112;53.282;6.150;2023-03-02T01:39:07;102909.31;;;15.23;51.98
62126;BME280;48112;53.282;6.150;2023-03-02T01:40:12;102910.13;;;15.24;52.02
62126;BME280;48112;53.282;6.150;2023-03-02T01:41:14;102914.78;;;15.23;52.12
62126;BME280;48112;53.282;6.150;2023-03-02T01:42:17;102906.59;;;15.23;51.96
62126;BME280;48112;53.282;6.150;2023-03-02T01:43:19;102905.03;;;15.22;52.08
62126;BME280;48112;53.282;6.150;2023-03-02T01:44:32;102901.16;;;15.23;51.95
62126;BME280;48112;53.282;6.150;2023-03-02T01:45:38;102903.88;;;15.23;51.87
62126;BME280;48112;53.282;6.150;2023-03-02T01:46:46;102908.53;;;15.23;52.11
62126;BME280;48112;53.282;6.150;2023-03-02T01:47:51;102911.25;;;15.23;52.06
62126;BME280;48112;53.282;6.150;2023-03-02T01:48:53;102906.59;;;15.23;51.98
62126;BME280;48112;53.282;6.150;2023-03-02T01:50:22;102905.03;;;15.22;51.90
62126;BME280;48112;53.282;6.150;2023-03-02T01:51:33;102905.03;;;15.22;51.95
62126;BME280;48112;53.282;6.150;2023-03-02T01:52:37;102912.06;;;15.23;52.06
62126;BME280;48112;53.282;6.150;2023-03-02T01:53:41;102897.97;;;15.21;51.91
62126;BME280;48112;53.282;6.150;2023-03-02T01:54:47;102897.97;;;15.21;52.09
62126;BME280;48112;53.282;6.150;2023-03-02T01:55:51;102904.22;;;15.22;51.93
62126;BME280;48112;53.282;6.150;2023-03-02T01:56:54;102898.75;;;15.22;52.09
62126;BME280;48112;53.282;6.150;2023-03-02T01:57:58;102897.97;;;15.21;51.98
62126;BME280;48112;53.282;6.150;2023-03-02T01:59:06;102906.13;;;15.21;51.82
62126;BME280;48112;53.282;6.150;2023-03-02T02:00:10;102903.41;;;15.21;51.88
62126;BME280;48112;53.282;6.150;2023-03-02T02:01:14;102906.13;;;15.21;51.78
62126;BME280;48112;53.282;6.150;2023-03-02T02:02:16;102904.22;;;15.22;52.03
62126;BME280;48112;53.282;6.150;2023-03-02T02:03:22;102898.75;;;15.22;51.80
62126;BME280;48112;53.282;6.150;2023-03-02T02:04:24;102894.44;;;15.21;51.81
62126;BME280;48112;53.282;6.150;2023-03-02T02:05:28;102897.97;;;15.21;51.74
62126;BME280;48112;53.282;6.150;2023-03-02T02:06:31;102897.16;;;15.21;51.79
62126;BME280;48112;53.282;6.150;2023-03-02T02:07:36;102890.94;;;15.20;51.78
62126;BME280;48112;53.282;6.150;2023-03-02T02:08:38;102895.22;;;15.21;51.91
62126;BME280;48112;53.282;6.150;2023-03-02T02:09:42;102891.69;;;15.21;51.96
62126;BME280;48112;53.282;6.150;2023-03-02T02:10:45;102886.59;;;15.19;51.85
62126;BME280;48112;53.282;6.150;2023-03-02T02:11:48;102890.94;;;15.20;51.69
62126;BME280;48112;53.282;6.150;2023-03-02T02:12:50;102891.69;;;15.21;51.89
62126;BME280;48112;53.282;6.150;2023-03-02T02:13:54;102888.19;;;15.20;51.92
62126;BME280;48112;53.282;6.150;2023-03-02T02:14:57;102890.94;;;15.20;51.76
62126;BME280;48112;53.282;6.150;2023-03-02T02:16:01;102885.47;;;15.20;51.71
62126;BME280;48112;53.282;6.150;2023-03-02T02:17:03;102889.31;;;15.19;51.99
62126;BME280;48112;53.282;6.150;2023-03-02T02:18:06;102886.59;;;15.19;51.97
62126;BME280;48112;53.282;6.150;2023-03-02T02:19:11;102883.88;;;15.19;51.68
62126;BME280;48112;53.282;6.150;2023-03-02T02:20:18;102887.72;;;15.18;51.77
62126;BME280;48112;53.282;6.150;2023-03-02T02:21:24;102889.31;;;15.19;51.73
62126;BME280;48112;53.282;6.150;2023-03-02T02:22:30;102889.31;;;15.19;51.76
62126;BME280;48112;53.282;6.150;2023-03-02T02:23:39;102889.31;;;15.19;51.85
62126;BME280;48112;53.282;6.150;2023-03-02T02:24:44;102883.88;;;15.19;51.65
62126;BME280;48112;53.282;6.150;2023-03-02T02:27:10;102879.56;;;15.18;51.71
62126;BME280;48112;53.282;6.150;2023-03-02T02:28:13;102880.38;;;15.19;51.59
62126;BME280;48112;53.282;6.150;2023-03-02T02:29:20;102880.69;;;15.17;51.70
62126;BME280;48112;53.282;6.150;2023-03-02T02:30:24;102876.03;;;15.18;51.72
62126;BME280;48112;53.282;6.150;2023-03-02T02:31:29;102882.28;;;15.18;51.77
62126;BME280;48112;53.282;6.150;2023-03-02T02:32:34;102886.13;;;15.17;51.81
62126;BME280;48112;53.282;6.150;2023-03-02T02:33:41;102880.69;;;15.17;51.68
62126;BME280;48112;53.282;6.150;2023-03-02T02:34:47;102884.19;;;15.18;51.93
62126;BME280;48112;53.282;6.150;2023-03-02T02:35:53;102886.13;;;15.17;51.67
62126;BME280;48112;53.282;6.150;2023-03-02T02:36:57;102893.16;;;15.18;51.79
62126;BME280;48112;53.282;6.150;2023-03-02T02:38:01;102888.84;;;15.17;51.80
62126;BME280;48112;53.282;6.150;2023-03-02T02:39:04;102894.28;;;15.17;51.70
62126;BME280;48112;53.282;6.150;2023-03-02T02:40:11;102886.91;;;15.18;51.86
62126;BME280;48112;53.282;6.150;2023-03-02T02:41:17;102897.00;;;15.17;51.66
62126;BME280;48112;53.282;6.150;2023-03-02T02:42:22;102888.03;;;15.17;51.55
62126;BME280;48112;53.282;6.150;2023-03-02T02:43:28;102892.66;;;15.16;51.83
62126;BME280;48112;53.282;6.150;2023-03-02T02:44:31;102889.94;;;15.16;51.57
62126;BME280;48112;53.282;6.150;2023-03-02T02:45:34;102887.22;;;15.16;51.88
62126;BME280;48112;53.282;6.150;2023-03-02T02:46:36;102890.75;;;15.17;51.67
62126;BME280;48112;53.282;6.150;2023-03-02T02:47:40;102892.66;;;15.16;51.69
62126;BME280;48112;53.282;6.150;2023-03-02T02:48:42;102895.41;;;15.16;51.72
62126;BME280;48112;53.282;6.150;2023-03-02T02:49:45;102898.13;;;15.16;51.58
62126;BME280;48112;53.282;6.150;2023-03-02T02:50:50;102889.16;;;15.16;51.64
62126;BME280;48112;53.282;6.150;2023-03-02T02:52:00;102892.66;;;15.16;51.54
62126;BME280;48112;53.282;6.150;2023-03-02T02:53:05;102900.06;;;15.16;51.75
62126;BME280;48112;53.282;6.150;2023-03-02T02:54:08;102899.25;;;15.15;51.69
62126;BME280;48112;53.282;6.150;2023-03-02T02:55:18;102893.81;;;15.15;51.65
62126;BME280;48112;53.282;6.150;2023-03-02T02:56:21;102899.25;;;15.15;51.84
62126;BME280;48112;53.282;6.150;2023-03-02T02:57:26;102896.53;;;15.15;51.71
62126;BME280;48112;53.282;6.150;2023-03-02T02:58:30;102894.94;;;15.14;51.70
62126;BME280;48112;53.282;6.150;2023-03-02T02:59:35;102900.38;;;15.14;51.28
62126;BME280;48112;53.282;6.150;2023-03-02T03:00:40;102898.44;;;15.15;51.64
62126;BME280;48112;53.282;6.150;2023-03-02T03:01:43;102903.88;;;15.15;51.74
62126;BME280;48112;53.282;6.150;2023-03-02T03:02:46;102904.69;;;15.15;51.64
62126;BME280;48112;53.282;6.150;2023-03-02T03:03:51;102908.53;;;15.14;51.68
62126;BME280;48112;53.282;6.150;2023-03-02T03:04:54;102907.41;;;15.15;51.72
62126;BME280;48112;53.282;6.150;2023-03-02T03:06:06;102913.97;;;15.14;51.48
62126;BME280;48112;53.282;6.150;2023-03-02T03:07:09;102904.19;;;15.13;51.88
62126;BME280;48112;53.282;6.150;2023-03-02T03:09:31;102894.94;;;15.14;51.63
62126;BME280;48112;53.282;6.150;2023-03-02T03:10:35;102901.47;;;15.13;51.46
62126;BME280;48112;53.282;6.150;2023-03-02T03:11:40;102896.03;;;15.13;51.53
62126;BME280;48112;53.282;6.150;2023-03-02T03:12:46;102890.59;;;15.13;51.72
62126;BME280;48112;53.282;6.150;2023-03-02T03:13:48;102890.59;;;15.13;51.61
62126;BME280;48112;53.282;6.150;2023-03-02T03:14:53;102895.25;;;15.13;51.75
62126;BME280;48112;53.282;6.150;2023-03-02T03:15:56;102887.88;;;15.13;51.69
62126;BME280;48112;53.282;6.150;2023-03-02T03:16:59;102893.31;;;15.13;51.50
62126;BME280;48112;53.282;6.150;2023-03-02T03:18:01;102890.59;;;15.13;51.59
62126;BME280;48112;53.282;6.150;2023-03-02T03:19:07;102892.53;;;15.13;51.57
62126;BME280;48112;53.282;6.150;2023-03-02T03:20:11;102896.03;;;15.13;51.46
62126;BME280;48112;53.282;6.150;2023-03-02T03:21:17;102889.81;;;15.13;51.56
62126;BME280;48112;53.282;6.150;2023-03-02T03:22:19;102890.59;;;15.13;51.66
62126;BME280;48112;53.282;6.150;2023-03-02T03:23:23;102893.31;;;15.13;51.77
62126;BME280;48112;53.282;6.150;2023-03-02T03:24:26;102889.00;;;15.12;51.50
62126;BME280;48112;53.282;6.150;2023-03-02T03:25:30;102890.59;;;15.13;51.79
62126;BME280;48112;53.282;6.150;2023-03-02T03:26:33;102895.56;;;15.11;51.55
62126;BME280;48112;53.282;6.150;2023-03-02T03:27:36;102889.81;;;15.13;51.67
62126;BME280;48112;53.282;6.150;2023-03-02T03:28:40;102889.00;;;15.12;51.54
62126;BME280;48112;53.282;6.150;2023-03-02T03:29:44;102887.09;;;15.13;51.65
62126;BME280;48112;53.282;6.150;2023-03-02T03:30:50;102887.38;;;15.11;51.53
62126;BME280;48112;53.282;6.150;2023-03-02T03:31:56;102887.09;;;15.13;51.60
62126;BME280;48112;53.282;6.150;2023-03-02T03:32:59;102881.94;;;15.11;51.50
62126;BME280;48112;53.282;6.150;2023-03-02T03:34:01;102889.34;;;15.11;51.64
62126;BME280;48112;53.282;6.150;2023-03-02T03:35:08;102888.19;;;15.12;51.79
62126;BME280;48112;53.282;6.150;2023-03-02T03:36:12;102881.94;;;15.11;51.70
62126;BME280;48112;53.282;6.150;2023-03-02T03:37:16;102890.09;;;15.11;51.63
62126;BME280;48112;53.282;6.150;2023-03-02T03:38:18;102886.59;;;15.11;51.52
62126;BME280;48112;53.282;6.150;2023-03-02T03:39:21;102886.59;;;15.11;51.47
62126;BME280;48112;53.282;6.150;2023-03-02T03:40:24;102886.59;;;15.11;51.60
62126;BME280;48112;53.282;6.150;2023-03-02T03:41:27;102883.06;;;15.10;51.71
62126;BME280;48112;53.282;6.150;2023-03-02T03:42:28;102892.06;;;15.11;51.56
62126;BME280;48112;53.282;6.150;2023-03-02T03:43:32;102892.06;;;15.11;51.51
62126;BME280;48112;53.282;6.150;2023-03-02T03:44:35;102891.25;;;15.10;51.54
62126;BME280;48112;53.282;6.150;2023-03-02T03:45:39;102892.06;;;15.11;51.69
62126;BME280;48112;53.282;6.150;2023-03-02T03:46:41;102893.97;;;15.10;51.57
62126;BME280;48112;53.282;6.150;2023-03-02T03:47:44;102890.44;;;15.10;51.68
62126;BME280;48112;53.282;6.150;2023-03-02T03:48:46;102888.53;;;15.10;51.56
62126;BME280;48112;53.282;6.150;2023-03-02T03:49:49;102887.38;;;15.11;51.40
62126;BME280;48112;53.282;6.150;2023-03-02T03:50:51;102885.00;;;15.10;51.42
62126;BME280;48112;53.282;6.150;2023-03-02T03:51:54;102885.00;;;15.10;51.54
62126;BME280;48112;53.282;6.150;2023-03-02T03:52:57;102885.81;;;15.10;51.49
62126;BME280;48112;53.282;6.150;2023-03-02T03:54:01;102886.94;;;15.09;51.70
62126;BME280;48112;53.282;6.150;2023-03-02T03:55:09;102885.81;;;15.10;51.51
62126;BME280;48112;53.282;6.150;2023-03-02T03:56:11;102883.41;;;15.09;51.48
62126;BME280;48112;53.282;6.150;2023-03-02T03:57:14;102886.13;;;15.09;51.56
62126;BME280;48112;53.282;6.150;2023-03-02T03:58:16;102893.97;;;15.10;51.48
62126;BME280;48112;53.282;6.150;2023-03-02T03:59:20;102888.84;;;15.09;51.62
62126;BME280;48112;53.282;6.150;2023-03-02T04:00:31;102889.66;;;15.09;51.58
62126;BME280;48112;53.282;6.150;2023-03-02T04:01:40;102889.66;;;15.09;51.65
62126;BME280;48112;53.282;6.150;2023-03-02T04:02:42;102892.38;;;15.09;51.62
62126;BME280;48112;53.282;6.150;2023-03-02T04:03:45;102893.16;;;15.10;51.43
62126;BME280;48112;53.282;6.150;2023-03-02T04:04:47;102888.84;;;15.09;51.56
62126;BME280;48112;53.282;6.150;2023-03-02T04:05:52;102900.53;;;15.09;51.50
62126;BME280;48112;53.282;6.150;2023-03-02T04:06:54;102901.63;;;15.08;51.50
62126;BME280;48112;53.282;6.150;2023-03-02T04:07:58;102892.38;;;15.09;51.53
62126;BME280;48112;53.282;6.150;2023-03-02T04:09:03;102903.25;;;15.09;51.39
62126;BME280;48112;53.282;6.150;2023-03-02T04:10:08;102897.81;;;15.09;51.62
62126;BME280;48112;53.282;6.150;2023-03-02T04:11:12;102896.19;;;15.08;51.50
62126;BME280;48112;53.282;6.150;2023-03-02T04:12:15;102890.75;;;15.08;51.37
62126;BME280;48112;53.282;6.150;2023-03-02T04:13:24;102890.75;;;15.08;51.51
62126;BME280;48112;53.282;6.150;2023-03-02T04:14:27;102888.84;;;15.09;51.51
62126;BME280;48112;53.282;6.150;2023-03-02T04:15:29;102888.03;;;15.08;51.64
62126;BME280;48112;53.282;6.150;2023-03-02T04:16:35;102889.66;;;15.09;51.46
62126;BME280;48112;53.282;6.150;2023-03-02T04:17:37;102892.69;;;15.08;51.58
62126;BME280;48112;53.282;6.150;2023-03-02T04:18:40;102891.88;;;15.07;51.51
62126;BME280;48112;53.282;6.150;2023-03-02T04:19:44;102887.25;;;15.08;51.43
62126;BME280;48112;53.282;6.150;2023-03-02T04:20:46;102890.75;;;15.08;51.52
62126;BME280;48112;53.282;6.150;2023-03-02T04:21:49;102884.84;;;15.06;51.42
62126;BME280;48112;53.282;6.150;2023-03-02T04:22:53;102887.25;;;15.08;51.88
62126;BME280;48112;53.282;6.150;2023-03-02T04:23:55;102889.97;;;15.08;51.64
62126;BME280;48112;53.282;6.150;2023-03-02T04:24:58;102883.56;;;15.03;51.63
62126;BME280;48112;53.282;6.150;2023-03-02T04:26:00;102883.72;;;15.07;51.41
62126;BME280;48112;53.282;6.150;2023-03-02T04:27:05;102883.72;;;15.07;51.31
62126;BME280;48112;53.282;6.150;2023-03-02T04:28:08;102886.44;;;15.07;51.41
62126;BME280;48112;53.282;6.150;2023-03-02T04:29:13;102876.69;;;15.06;51.28
62126;BME280;48112;53.282;6.150;2023-03-02T04:30:16;102876.69;;;15.06;51.33
62126;BME280;48112;53.282;6.150;2023-03-02T04:31:19;102878.59;;;15.06;51.76
62126;BME280;48112;53.282;6.150;2023-03-02T04:32:23;102885.63;;;15.07;51.51
62126;BME280;48112;53.282;6.150;2023-03-02T04:33:29;102878.59;;;15.06;51.40
62126;BME280;48112;53.282;6.150;2023-03-02T04:34:30;102881.00;;;15.07;51.54
62126;BME280;48112;53.282;6.150;2023-03-02T04:35:34;102882.13;;;15.06;51.40
62126;BME280;48112;53.282;6.150;2023-03-02T04:36:37;102880.19;;;15.07;51.37
62126;BME280;48112;53.282;6.150;2023-03-02T04:37:43;102879.41;;;15.06;51.37
62126;BME280;48112;53.282;6.150;2023-03-02T04:38:48;102884.03;;;15.06;51.61
62126;BME280;48112;53.282;6.150;2023-03-02T04:39:50;102888.69;;;15.05;51.42
62126;BME280;48112;53.282;6.150;2023-03-02T04:40:53;102887.56;;;15.06;51.31
62126;BME280;48112;53.282;6.150;2023-03-02T04:41:56;102892.22;;;15.06;51.47
62126;BME280;48112;53.282;6.150;2023-03-02T04:42:58;102888.69;;;15.05;51.54
62126;BME280;48112;53.282;6.150;2023-03-02T04:44:01;102901.19;;;15.06;51.58
62126;BME280;48112;53.282;6.150;2023-03-02T04:45:03;102900.38;;;15.06;51.38
62126;BME280;48112;53.282;6.150;2023-03-02T04:46:06;102888.69;;;15.05;51.49
62126;BME280;48112;53.282;6.150;2023-03-02T04:47:10;102899.56;;;15.05;51.41
62126;BME280;48112;53.282;6.150;2023-03-02T04:48:14;102899.56;;;15.05;51.55
62126;BME280;48112;53.282;6.150;2023-03-02T04:49:17;102898.78;;;15.05;51.34
62126;BME280;48112;53.282;6.150;2023-03-02T04:50:20;102899.56;;;15.05;51.45
62126;BME280;48112;53.282;6.150;2023-03-02T04:51:22;102891.41;;;15.05;51.33
62126;BME280;48112;53.282;6.150;2023-03-02T04:52:25;102889.50;;;15.06;51.48
62126;BME280;48112;53.282;6.150;2023-03-02T04:53:27;102899.56;;;15.05;51.57
62126;BME280;48112;53.282;6.150;2023-03-02T04:54:30;102887.91;;;15.05;51.35
62126;BME280;48112;53.282;6.150;2023-03-02T04:55:32;102895.25;;;15.04;51.47
62126;BME280;48112;53.282;6.150;2023-03-02T04:56:35;102897.97;;;15.04;51.35
62126;BME280;48112;53.282;6.150;2023-03-02T04:57:37;102897.97;;;15.04;51.44
62126;BME280;48112;53.282;6.150;2023-03-02T04:58:41;102897.97;;;15.04;51.56
62126;BME280;48112;53.282;6.150;2023-03-02T04:59:43;102897.16;;;15.03;51.15
62126;BME280;48112;53.282;6.150;2023-03-02T05:00:45;102897.97;;;15.04;51.33
62126;BME280;48112;53.282;6.150;2023-03-02T05:01:47;102900.69;;;15.04;51.33
62126;BME280;48112;53.282;6.150;2023-03-02T05:02:50;102886.28;;;15.03;51.38
62126;BME280;48112;53.282;6.150;2023-03-02T05:03:54;102896.38;;;15.03;51.47
62126;BME280;48112;53.282;6.150;2023-03-02T05:04:57;102885.50;;;15.03;51.54
62126;BME280;48112;53.282;6.150;2023-03-02T05:05:59;102900.69;;;15.04;51.08
62126;BME280;48112;53.282;6.150;2023-03-02T05:07:03;102892.84;;;15.02;51.26
62126;BME280;48112;53.282;6.150;2023-03-02T05:08:05;102890.13;;;15.02;51.28
62126;BME280;48112;53.282;6.150;2023-03-02T05:09:08;102896.38;;;15.03;51.51
62126;BME280;48112;53.282;6.150;2023-03-02T05:10:11;102893.66;;;15.03;51.19
62126;BME280;48112;53.282;6.150;2023-03-02T05:11:14;102902.59;;;15.03;51.42
62126;BME280;48112;53.282;6.150;2023-03-02T05:12:22;102901.81;;;15.03;51.38
62126;BME280;48112;53.282;6.150;2023-03-02T05:13:25;102897.16;;;15.03;51.22
62126;BME280;48112;53.282;6.150;2023-03-02T05:14:27;102901.00;;;15.02;51.44
62126;BME280;48112;53.282;6.150;2023-03-02T05:15:31;102899.09;;;15.03;51.06
62126;BME280;48112;53.282;6.150;2023-03-02T05:16:34;102888.22;;;15.03;51.58
62126;BME280;48112;53.282;6.150;2023-03-02T05:17:38;102895.56;;;15.02;51.50
62126;BME280;48112;53.282;6.150;2023-03-02T05:18:40;102899.09;;;15.03;51.39
62126;BME280;48112;53.282;6.150;2023-03-02T05:19:44;102894.75;;;15.02;51.35
62126;BME280;48112;53.282;6.150;2023-03-02T05:20:46;102901.81;;;15.03;51.27
62126;BME280;48112;53.282;6.150;2023-03-02T05:21:50;102892.03;;;15.02;51.30
62126;BME280;48112;53.282;6.150;2023-03-02T05:22:53;102891.22;;;15.01;51.36
62126;BME280;48112;53.282;6.150;2023-03-02T05:23:56;102898.63;;;15.01;51.30
62126;BME280;48112;53.282;6.150;2023-03-02T05:24:59;102894.75;;;15.02;51.50
62126;BME280;48112;53.282;6.150;2023-03-02T05:26:02;102900.19;;;15.02;51.19
62126;BME280;48112;53.282;6.150;2023-03-02T05:27:03;102897.47;;;15.02;51.12
62126;BME280;48112;53.282;6.150;2023-03-02T05:28:06;102903.72;;;15.02;51.25
62126;BME280;48112;53.282;6.150;2023-03-02T05:29:08;102887.72;;;15.01;51.08
62126;BME280;48112;53.282;6.150;2023-03-02T05:30:11;102893.19;;;15.01;51.51
62126;BME280;48112;53.282;6.150;2023-03-02T05:31:15;102898.63;;;15.01;51.36
62126;BME280;48112;53.282;6.150;2023-03-02T05:32:19;102900.53;;;15.00;51.12
62126;BME280;48112;53.282;6.150;2023-03-02T05:33:21;102897.00;;;15.00;51.35
62126;BME280;48112;53.282;6.150;2023-03-02T05:34:24;102891.56;;;15.00;51.27
62126;BME280;48112;53.282;6.150;2023-03-02T05:35:27;102891.56;;;15.00;51.38